»·PEaware :: AAL492 KSAN-KLAS

AAL492 :: KSAN-KLAS

FLIGHT INFORMATION

Flight Status: Arrived
Operator:
American Airlines
More flights by this operator :: More flights under this callsign
Pilot: Mike C. (16705)
Aircraft: BOEING 757-200
(B752)
More flights by this aircraft type
Origin: KSAN San Diego Intl-Lindbergh
United States
Destination: KLAS McCarran Intl
United States
More flights between these airports :: More routes between these airports
Route: +PADRZ2 CHKNN SEBBY YELAH MISEN KEPEC6
File this flight plan on PilotEdge
Remarks: RMK / SIMBRIEF
Altitude:
(Current/Filed)
35,000ft
Speed:
(Current/Filed)
442kts
Departed: 12-Jul-20 09:04 AM
Arrived: 12-Jul-20 10:00 AM
Distance/Time
Traveled:
224nm/0:56
Distance/Time
To Go:
Arrived

Flight Plot

Page will automatically refresh every two minutes.

Flight plan parsing failed; only flown route is shown


Map Options




Map Legend


Flown Route
Filed Route
Departure Airport
Arrival Airport
Navaid (VOR, NDB)
Fix

Horizontal Profiles

Position Reports

Time Latitude Longitude Heading Altitude Ground
Speed
12-Jul-20 08:30 32.733353 -117.201800 83 29ft 0kts
12-Jul-20 08:31 32.733353 -117.201800 83 29ft 0kts
12-Jul-20 08:32 32.733353 -117.201800 83 29ft 0kts
12-Jul-20 08:33 32.733353 -117.201800 83 29ft 0kts
12-Jul-20 08:34 32.733353 -117.201800 83 29ft 0kts
12-Jul-20 08:35 32.733353 -117.201800 83 29ft 0kts
12-Jul-20 08:36 32.733353 -117.201800 83 29ft 0kts
12-Jul-20 08:37 32.733353 -117.201800 83 28ft 0kts
12-Jul-20 08:38 32.733353 -117.201800 83 28ft 0kts
12-Jul-20 08:39 32.733353 -117.201800 83 28ft 0kts
12-Jul-20 08:40 32.733353 -117.201800 83 28ft 0kts
12-Jul-20 08:41 32.733353 -117.201800 83 28ft 0kts
12-Jul-20 08:42 32.733353 -117.201800 83 28ft 0kts
12-Jul-20 08:43 32.733353 -117.201800 83 28ft 0kts
12-Jul-20 08:44 32.733353 -117.201800 83 28ft 0kts
12-Jul-20 08:45 32.733353 -117.201800 83 28ft 0kts
12-Jul-20 08:46 32.733353 -117.201800 83 29ft 0kts
12-Jul-20 08:47 32.733353 -117.201800 83 29ft 0kts
12-Jul-20 08:48 32.733343 -117.201900 83 29ft 2kts
12-Jul-20 08:49 32.733100 -117.202424 7 29ft 2kts
12-Jul-20 08:50 32.732894 -117.202372 334 28ft 0kts
12-Jul-20 08:52 32.732894 -117.202372 334 28ft 0kts
12-Jul-20 08:53 32.733502 -117.202706 341 28ft 3kts
12-Jul-20 08:54 32.735142 -117.202323 29 28ft 7kts
12-Jul-20 08:55 32.734958 -117.199685 107 28ft 9kts
12-Jul-20 08:56 32.734114 -117.196165 106 28ft 13kts
12-Jul-20 08:57 32.732895 -117.191142 106 29ft 17kts
12-Jul-20 08:58 32.731608 -117.185931 106 28ft 15kts
12-Jul-20 08:59 32.730550 -117.181495 106 28ft 12kts
12-Jul-20 09:00 32.729652 -117.177807 106 28ft 10kts
12-Jul-20 09:01 32.729511 -117.176831 82 28ft 0kts
12-Jul-20 09:02 32.729540 -117.176660 76 29ft 3kts
12-Jul-20 09:03 32.730180 -117.175894 299 28ft 3kts
12-Jul-20 09:04 32.735790 -117.198832 287 436ft 168kts
12-Jul-20 09:05 32.765418 -117.256285 303 2488ft 249kts
12-Jul-20 09:06 32.804244 -117.325538 308 6335ft 260kts
12-Jul-20 09:07 32.849632 -117.395903 307 9796ft 278kts
12-Jul-20 09:08 32.903577 -117.479725 306 11721ft 355kts
12-Jul-20 09:09 32.964847 -117.575114 306 15223ft 374kts
12-Jul-20 09:09 33.018386 -117.658705 306 17916ft 388kts
12-Jul-20 09:11 33.105239 -117.771463 319 21273ft 408kts
12-Jul-20 09:12 33.192840 -117.860813 319 23834ft 422kts
12-Jul-20 09:12 33.269459 -117.935613 320 25736ft 434kts
12-Jul-20 09:13 33.363947 -118.027970 320 27825ft 446kts
12-Jul-20 09:15 33.477079 -118.138909 320 29931ft 460kts
12-Jul-20 09:15 33.573509 -118.191622 351 31516ft 464kts
12-Jul-20 09:16 33.697562 -118.165440 29 33522ft 458kts
12-Jul-20 09:17 33.789705 -118.061874 47 35013ft 458kts
12-Jul-20 09:18 33.877084 -117.952334 45 35011ft 455kts
12-Jul-20 09:19 33.966106 -117.841999 45 35013ft 459kts
12-Jul-20 09:20 34.055043 -117.731563 45 35024ft 460kts
12-Jul-20 09:21 34.144172 -117.620557 45 35059ft 461kts
12-Jul-20 09:22 34.233178 -117.509346 45 35009ft 461kts
12-Jul-20 09:23 34.322393 -117.397507 45 35010ft 461kts
12-Jul-20 09:24 34.411221 -117.285787 45 35008ft 461kts
12-Jul-20 09:25 34.500404 -117.173256 45 35008ft 462kts
12-Jul-20 09:26 34.589528 -117.060426 45 35009ft 462kts
12-Jul-20 09:27 34.679140 -116.946606 45 33411ft 465kts
12-Jul-20 09:28 34.769003 -116.832089 46 31392ft 471kts
12-Jul-20 09:29 34.856943 -116.719637 46 29626ft 447kts
12-Jul-20 09:30 34.940521 -116.612410 46 27638ft 427kts
12-Jul-20 09:31 35.020425 -116.509581 46 25798ft 413kts
12-Jul-20 09:32 35.098291 -116.409079 46 24087ft 400kts
12-Jul-20 09:33 35.176057 -116.311615 46 24007ft 401kts
12-Jul-20 09:34 35.254040 -116.213782 46 22401ft 395kts
12-Jul-20 09:35 35.329382 -116.118987 46 20490ft 384kts
12-Jul-20 09:36 35.403095 -116.025977 46 18581ft 375kts
12-Jul-20 09:37 35.474969 -115.935022 46 16675ft 368kts
12-Jul-20 09:38 35.545629 -115.845371 46 14771ft 362kts
12-Jul-20 09:39 35.614870 -115.757286 45 13104ft 349kts
12-Jul-20 09:40 35.679098 -115.675375 45 13019ft 328kts
12-Jul-20 09:41 35.743067 -115.594832 37 13020ft 328kts
12-Jul-20 09:42 35.829707 -115.571726 359 13021ft 322kts
12-Jul-20 09:43 35.919314 -115.566467 359 13021ft 322kts
12-Jul-20 09:44 35.990746 -115.507156 69 12341ft 327kts
12-Jul-20 09:45 36.021984 -115.404232 69 11202ft 310kts
12-Jul-20 09:46 36.025735 -115.304805 97 10618ft 290kts
12-Jul-20 09:47 36.018809 -115.206429 97 9407ft 279kts
12-Jul-20 09:48 36.012700 -115.116328 96 8418ft 248kts
12-Jul-20 09:49 36.007528 -115.034214 95 8011ft 222kts
12-Jul-20 09:50 36.002955 -114.957673 95 8020ft 224kts
12-Jul-20 09:51 35.998274 -114.879969 94 6688ft 220kts
12-Jul-20 09:52 36.037534 -114.842971 4 5396ft 201kts
12-Jul-20 09:53 36.073666 -114.876124 268 4444ft 174kts
12-Jul-20 09:54 36.073524 -114.938053 268 4466ft 182kts
12-Jul-20 09:55 36.073577 -115.000712 268 4053ft 180kts
12-Jul-20 09:56 36.073637 -115.061439 268 3118ft 160kts
12-Jul-20 09:57 36.073637 -115.108837 268 2348ft 128kts
12-Jul-20 09:58 36.073614 -115.145443 270 2109ft 43kts
12-Jul-20 09:59 36.075165 -115.151275 317 2128ft 0kts
12-Jul-20 10:00 36.076291 -115.151888 340 2129ft 6kts

Navigation Log

Ident Type
Flight plan parsing failed, navigation log unavailable